TALO2: Illinois River, Tahlequah, OK

                                SHEF ID:       TALO2     Illinois River near Tahlequah, O
STATION TYPE:
Regulating: Stage = 11.00, Flow = 10168

PRECIP STAGE STAGE(2) RIV-FLOW BAT-LOAD
in ft ft cfs volt
Ccp-Rev Ccp-Rev Ccp-Rev Ccp-Rev Ccp-Rev
(America/Chicago)
04/25 00:00 ---- 8.14 ---- 4222 12.17
04/25 01:00 ---- 8.26 ---- 4450 12.17
04/25 02:00 ---- 8.38 ---- 4679 12.41
04/25 03:00 ---- 8.50 ---- 4910 12.09
04/25 04:00 ---- 8.66 ---- 5220 12.01
04/25 05:00 ---- 8.87 ---- 5632 11.93
04/25 06:00 ---- 9.19 ---- 6270 12.09
04/25 07:00 ---- 9.49 ---- 6878 12.17
04/25 08:00 ---- 9.80 ---- 7517 11.70
04/25 09:00 ---- 10.00 ---- 7933 12.33
04/25 10:00 ---- 10.18 ---- 8316 12.89
04/25 11:00 ---- 10.32 ---- 8620 12.97
04/25 12:00 ---- 10.29 ---- 8554 13.05
04/25 13:00 ---- 10.28 ---- 8533 12.81
04/25 14:00 ---- 10.17 ---- 8295 12.65
04/25 15:00 ---- 10.02 ---- 7976 12.81
04/25 16:00 ---- 9.82 ---- 7559 12.73
04/25 17:00 ---- 9.66 ---- 7227 12.65
04/25 18:00 ---- 9.47 ---- 6837 12.89
04/25 19:00 ---- 9.30 ---- 6492 12.41
04/25 20:00 ---- 9.17 ---- 6230 12.25
04/25 21:00 ---- 9.05 ---- 5989 12.09
04/25 22:00 ---- 8.98 ---- 5850 12.17
04/25 23:00 ---- ---- ---- ---- ----
Data processed at Sun 26Apr2026 04:33 GMT

NOTICE: If you are parsing this page

Please convert to using our Data API. Starting early 2026 we will be migrating to: https://water.usace.army.mil with modern pages rendered in JavaScript. When this migration completes you will no longer be able to scrape this page! CWMSDataAPI (CDA)

Timeseries IDs (TSIDs)

TSIDs used from left to right in the data table
TAHL.Precip-Inc.Total.1Hour.0.Ccp-Rev
TAHL.Stage.Inst.1Hour.0.Ccp-Rev
TAHL.Stage-Alt.Inst.1Hour.0.Ccp-Rev
TAHL.Flow.Inst.1Hour.0.Ccp-Rev
TAHL.Volt-Battery Load.Inst.1Hour.0.Ccp-Rev

                            

All information presented herein is the property of the government of the United States of America and may be revised or deleted at any time without prior notice. Dissemination of this information without the expressed written consent of the Public Affairs Office, Tulsa District U.S. Army Corps of Engineers is strictly prohibited. These data are gathered electronically and, as presented, have NOT undergone any form of quality control. These data are NOT guaranteed to be valid or correct.